Terminal Aerodrome Forecast
Issued by NWS

Home | Current Version | Previous Version | Text Only | Print | Product List | Glossary On
Versions: 1 2 3 4 5 6 7 8 9 10 11 12 13 14 15
000
FTUS46 KSGX 282157 AAA
TAFCRQ
TAF AMD
KCRQ 282157Z 2822/2918 26009KT P6SM FEW020
     FM290200 VRB04KT P6SM BKN010
     FM290600 VRB03KT 5SM BR OVC006=

USA.gov is the U.S. government's official web portal to all federal, state and local government web resources and services.